createdAt,value
2022-10-05T00:02:38.346Z,101329.03
2022-10-05T00:05:41.021Z,101332.25
2022-10-05T00:08:44.180Z,101329.56
2022-10-05T00:11:49.304Z,101329.56
2022-10-05T00:14:54.433Z,101326.06
2022-10-05T00:17:57.017Z,101328.50
2022-10-05T00:20:59.597Z,101321.81
2022-10-05T00:24:02.492Z,101333.38
2022-10-05T00:27:15.687Z,101329.97
2022-10-05T00:30:20.178Z,101333.91
2022-10-05T00:33:22.659Z,101337.97
2022-10-05T00:36:26.096Z,101331.81
2022-10-05T00:39:29.940Z,101328.91
2022-10-05T00:42:47.785Z,101328.38
2022-10-05T00:45:56.069Z,101321.16
2022-10-05T00:49:04.177Z,101316.72
2022-10-05T00:52:20.415Z,101319.13
2022-10-05T00:55:33.507Z,101312.66
2022-10-05T00:58:55.643Z,101303.72
2022-10-05T01:02:03.857Z,101301.31
2022-10-05T01:05:13.367Z,101299.53
2022-10-05T01:08:28.908Z,101298.09
2022-10-05T01:11:38.141Z,101292.66
2022-10-05T01:14:48.113Z,101285.59
2022-10-05T01:17:58.030Z,101278.84
2022-10-05T01:21:07.157Z,101269.31
2022-10-05T01:24:41.299Z,101273.91
2022-10-05T01:27:51.850Z,101271.34
2022-10-05T01:31:01.748Z,101281.41
2022-10-05T01:34:11.428Z,101269.31
2022-10-05T01:37:23.159Z,101272.19
2022-10-05T01:40:34.854Z,101272.69
2022-10-05T01:43:45.973Z,101265.91
2022-10-05T01:46:56.445Z,101257.34
2022-10-05T01:50:04.480Z,101249.41
2022-10-05T01:53:13.645Z,101243.06
2022-10-05T01:56:22.650Z,101239.25
2022-10-05T01:59:34.951Z,101224.03
2022-10-05T02:02:42.347Z,101228.22
2022-10-05T02:05:51.470Z,101230.69
2022-10-05T02:08:59.547Z,101245.94
2022-10-05T02:12:07.664Z,101247.56
2022-10-05T02:15:15.592Z,101248.47
2022-10-05T02:18:22.130Z,101252.78
2022-10-05T02:21:25.963Z,101253.44
2022-10-05T02:24:33.314Z,101239.59
2022-10-05T02:27:41.855Z,101240.59
2022-10-05T02:30:50.121Z,101236.28
2022-10-05T02:33:52.733Z,101236.59
2022-10-05T02:37:15.452Z,101245.81
2022-10-05T02:40:32.154Z,101235.56
2022-10-05T02:43:45.421Z,101236.59
2022-10-05T02:46:57.711Z,101237.25
2022-10-05T02:50:09.223Z,101220.38
2022-10-05T02:53:21.333Z,101226.00
2022-10-05T02:56:30.930Z,101220.13
2022-10-05T02:59:38.888Z,101210.41
2022-10-05T03:02:48.476Z,101203.94
2022-10-05T03:05:56.771Z,101196.59
2022-10-05T03:09:03.879Z,101191.47
2022-10-05T03:12:16.021Z,101192.75
2022-10-05T03:15:32.268Z,101191.31
2022-10-05T03:18:49.212Z,101185.56
2022-10-05T03:21:59.784Z,101179.22
2022-10-05T03:25:22.894Z,101188.59
2022-10-05T03:28:33.596Z,101189.09
2022-10-05T03:31:44.725Z,101201.47
2022-10-05T03:34:53.875Z,101196.06
2022-10-05T03:38:18.765Z,101183.22
2022-10-05T03:41:27.871Z,101175.47
2022-10-05T03:44:41.948Z,101185.06
2022-10-05T03:47:50.917Z,101174.88
2022-10-05T03:51:02.950Z,101175.59
2022-10-05T03:54:12.705Z,101182.31
2022-10-05T03:57:19.465Z,101169.53
2022-10-05T04:00:24.223Z,101176.13
2022-10-05T04:03:35.003Z,101174.66
2022-10-05T04:06:46.455Z,101161.31
2022-10-05T04:09:53.658Z,101170.81
2022-10-05T04:13:02.237Z,101159.47
2022-10-05T04:16:11.838Z,101160.59
2022-10-05T04:19:19.032Z,101159.72
2022-10-05T04:22:26.414Z,101155.31
2022-10-05T04:25:33.146Z,101159.81
2022-10-05T04:28:44.430Z,101165.16
2022-10-05T04:31:58.390Z,101167.59
2022-10-05T04:35:16.657Z,101174.53
2022-10-05T04:38:28.947Z,101180.00
2022-10-05T04:41:58.994Z,101168.09
2022-10-05T04:45:09.347Z,101167.09
2022-10-05T04:48:46.675Z,101158.13
2022-10-05T04:51:57.429Z,101151.56
2022-10-05T04:55:10.449Z,101148.59
2022-10-05T04:58:23.896Z,101143.63
2022-10-05T05:02:03.256Z,101141.66
2022-10-05T05:05:28.311Z,101148.25
2022-10-05T05:08:46.960Z,101138.88
2022-10-05T05:12:04.665Z,101136.38
2022-10-05T05:15:37.498Z,101135.22
2022-10-05T05:19:13.850Z,101139.47
2022-10-05T05:22:25.928Z,101149.06
2022-10-05T05:25:40.725Z,101145.63
2022-10-05T05:28:52.113Z,101149.06
2022-10-05T05:32:01.396Z,101146.50
2022-10-05T05:35:23.193Z,101146.06
2022-10-05T05:38:32.290Z,101145.06
2022-10-05T05:41:39.614Z,101139.69
2022-10-05T05:44:48.893Z,101138.53
2022-10-05T05:47:54.736Z,101138.28
2022-10-05T05:51:01.392Z,101141.28
2022-10-05T05:54:25.614Z,101139.03
2022-10-05T05:57:32.978Z,101142.25
2022-10-05T06:00:43.683Z,101131.81
2022-10-05T06:03:49.883Z,101135.50
2022-10-05T06:06:54.911Z,101131.97
2022-10-05T06:10:02.577Z,101140.25
2022-10-05T06:13:10.943Z,101130.91
2022-10-05T06:16:20.572Z,101124.72
2022-10-05T06:19:24.825Z,101129.63
2022-10-05T06:22:33.570Z,101118.50
2022-10-05T06:25:43.414Z,101111.59
2022-10-05T06:28:51.629Z,101115.00
2022-10-05T06:32:06.505Z,101120.31
2022-10-05T06:35:17.406Z,101127.59
2022-10-05T06:38:45.109Z,101139.00
2022-10-05T06:42:02.706Z,101139.78
2022-10-05T06:45:10.733Z,101136.72
2022-10-05T06:48:21.945Z,101135.63
2022-10-05T06:51:33.158Z,101142.22
2022-10-05T06:54:46.063Z,101134.91
2022-10-05T06:58:01.252Z,101125.41
2022-10-05T07:01:10.619Z,101119.53
2022-10-05T07:04:38.337Z,101126.69
2022-10-05T07:07:47.931Z,101121.19
2022-10-05T07:11:05.248Z,101127.31
2022-10-05T07:14:23.561Z,101124.34
2022-10-05T07:17:42.477Z,101127.31
2022-10-05T07:20:55.413Z,101122.75
2022-10-05T07:24:09.295Z,101125.75
2022-10-05T07:27:18.233Z,101120.91
2022-10-05T07:30:21.290Z,101121.34
2022-10-05T07:33:29.895Z,101115.88
2022-10-05T07:36:58.673Z,101115.06
2022-10-05T07:40:11.507Z,101123.06
2022-10-05T07:43:51.116Z,101124.34
2022-10-05T07:46:57.299Z,101125.75
2022-10-05T07:50:04.045Z,101122.69
2022-10-05T07:53:16.661Z,101116.16
2022-10-05T07:56:24.242Z,101121.16
2022-10-05T07:59:33.515Z,101117.00
2022-10-05T08:02:42.928Z,101127.31
2022-10-05T08:05:47.141Z,101124.56
2022-10-05T08:08:57.298Z,101131.00
2022-10-05T08:12:08.605Z,101134.94
2022-10-05T08:15:16.395Z,101139.75
2022-10-05T08:18:37.438Z,101133.53
2022-10-05T08:21:44.702Z,101135.81
2022-10-05T08:24:58.715Z,101132.47
2022-10-05T08:28:09.474Z,101125.88
2022-10-05T08:31:20.621Z,101130.72
2022-10-05T08:34:29.621Z,101120.00
2022-10-05T08:37:35.448Z,101133.28
2022-10-05T08:41:18.359Z,101129.00
2022-10-05T08:44:55.958Z,101129.22
2022-10-05T08:48:31.803Z,101124.63
2022-10-05T08:51:50.476Z,101128.63
2022-10-05T08:55:20.651Z,101147.25
2022-10-05T08:58:58.331Z,101150.19
2022-10-05T09:02:18.242Z,101137.19
2022-10-05T09:05:51.550Z,101136.31
2022-10-05T09:09:39.977Z,101136.00
2022-10-05T09:13:12.364Z,101144.63
2022-10-05T09:16:45.459Z,101131.75
2022-10-05T09:20:00.790Z,101134.88
2022-10-05T09:23:14.492Z,101139.63
2022-10-05T09:26:44.270Z,101138.56
2022-10-05T09:30:11.582Z,101139.16
2022-10-05T09:33:33.673Z,101130.97
2022-10-05T09:37:20.038Z,101132.19
2022-10-05T09:40:59.917Z,101119.06
2022-10-05T09:44:29.904Z,101126.22
2022-10-05T09:48:00.856Z,101112.66
2022-10-05T09:51:36.922Z,101114.75
2022-10-05T09:55:14.372Z,101117.84
2022-10-05T09:58:53.048Z,101107.44
2022-10-05T10:02:14.016Z,101106.44
2022-10-05T10:05:33.125Z,101108.72
2022-10-05T10:08:46.564Z,101096.00
2022-10-05T10:12:07.345Z,101089.41
2022-10-05T10:15:34.213Z,101090.69
2022-10-05T10:19:03.631Z,101098.59
2022-10-05T10:22:22.808Z,101099.75
2022-10-05T10:25:53.170Z,101090.38
2022-10-05T10:29:16.915Z,101091.94
2022-10-05T10:32:50.693Z,101085.25
2022-10-05T10:36:01.658Z,101090.72
2022-10-05T10:39:13.281Z,101088.72
2022-10-05T10:42:33.334Z,101083.94
2022-10-05T10:45:49.095Z,101094.66
2022-10-05T10:49:10.353Z,101090.81
2022-10-05T10:52:25.820Z,101088.31
2022-10-05T10:55:33.363Z,101083.53
2022-10-05T10:58:58.724Z,101085.19
2022-10-05T11:02:26.991Z,101087.38
2022-10-05T11:05:56.672Z,101086.03
2022-10-05T11:09:19.856Z,101077.22
2022-10-05T11:12:56.213Z,101086.47
2022-10-05T11:16:22.171Z,101090.66
2022-10-05T11:20:02.973Z,101072.38
2022-10-05T11:23:34.160Z,101082.72
2022-10-05T11:27:07.436Z,101077.72
2022-10-05T11:30:52.953Z,101064.78
2022-10-05T11:34:42.084Z,101064.66
2022-10-05T11:38:07.521Z,101063.03
2022-10-05T11:41:33.828Z,101053.97
2022-10-05T11:45:11.779Z,101054.06
2022-10-05T11:48:34.366Z,101054.66
2022-10-05T11:51:49.353Z,101043.56
2022-10-05T11:55:10.939Z,101038.03
2022-10-05T11:58:20.920Z,101040.03
2022-10-05T12:01:30.893Z,101029.97
2022-10-05T12:04:46.213Z,101026.16
2022-10-05T12:08:07.651Z,101024.81
2022-10-05T12:11:30.529Z,101012.34
2022-10-05T12:14:42.830Z,101017.94
2022-10-05T12:17:51.537Z,101013.84
2022-10-05T12:20:59.901Z,101003.94
2022-10-05T12:24:14.023Z,101001.50
2022-10-05T12:27:21.480Z,101002.53
2022-10-05T12:30:33.672Z,101002.56
2022-10-05T12:33:47.044Z,100985.88
2022-10-05T12:37:04.425Z,100985.97
2022-10-05T12:40:23.050Z,100980.34
2022-10-05T12:43:34.340Z,100990.94
2022-10-05T12:46:44.101Z,100984.16
2022-10-05T12:50:02.914Z,100987.03
2022-10-05T12:53:25.494Z,100977.63
2022-10-05T12:56:40.685Z,100972.34
2022-10-05T12:59:50.079Z,100981.69
2022-10-05T13:02:58.953Z,100967.84
2022-10-05T13:06:15.216Z,100965.16
2022-10-05T13:09:23.921Z,100971.81
2022-10-05T13:12:38.183Z,100964.28
2022-10-05T13:15:50.631Z,100963.34
2022-10-05T13:19:10.351Z,100960.81
2022-10-05T13:22:36.692Z,100950.44
2022-10-05T13:25:47.697Z,100950.75
2022-10-05T13:28:58.381Z,100949.91
2022-10-05T13:32:07.184Z,100949.81
2022-10-05T13:35:28.505Z,100940.22
2022-10-05T13:38:45.280Z,100931.97
2022-10-05T13:41:54.399Z,100928.22
2022-10-05T13:45:04.386Z,100931.22
2022-10-05T13:48:19.792Z,100931.66
2022-10-05T13:51:25.167Z,100932.19
2022-10-05T13:54:37.259Z,100928.41
2022-10-05T13:57:49.656Z,100919.31
2022-10-05T14:00:56.451Z,100914.88
2022-10-05T14:04:07.577Z,100918.53
2022-10-05T14:07:24.782Z,100922.84
2022-10-05T14:10:35.091Z,100911.91
2022-10-05T14:13:47.743Z,100919.72
2022-10-05T14:16:53.425Z,100919.94
2022-10-05T14:19:59.749Z,100918.78
2022-10-05T14:23:04.946Z,100909.09
2022-10-05T14:26:18.968Z,100914.44
2022-10-05T14:29:25.566Z,100918.75
2022-10-05T14:32:32.367Z,100922.44
2022-10-05T14:35:48.892Z,100923.50
2022-10-05T14:38:53.931Z,100922.19
2022-10-05T14:41:56.710Z,100916.28
2022-10-05T14:45:01.011Z,100926.28
2022-10-05T14:48:11.502Z,100923.38
2022-10-05T14:51:25.441Z,100915.56
2022-10-05T14:54:41.741Z,100917.47
2022-10-05T14:57:54.019Z,100914.78
2022-10-05T15:01:02.724Z,100910.28
2022-10-05T15:04:24.896Z,100910.50
2022-10-05T15:07:38.794Z,100903.72
2022-10-05T15:10:43.905Z,100907.38
2022-10-05T15:13:47.462Z,100909.41
2022-10-05T15:16:53.738Z,100903.72
2022-10-05T15:20:05.089Z,100900.94
2022-10-05T15:23:24.779Z,100897.50
2022-10-05T15:26:41.101Z,100896.06
2022-10-05T15:29:56.473Z,100893.38
2022-10-05T15:33:12.843Z,100881.56
2022-10-05T15:36:19.845Z,100888.75
2022-10-05T15:39:34.688Z,100882.00
2022-10-05T15:42:39.340Z,100869.75
2022-10-05T15:45:53.755Z,100876.31
2022-10-05T15:49:08.268Z,100862.66
2022-10-05T15:52:23.866Z,100862.59
2022-10-05T15:55:35.119Z,100856.03
2022-10-05T15:58:51.915Z,100852.16
2022-10-05T16:02:00.761Z,100862.03
2022-10-05T16:05:19.857Z,100861.25
2022-10-05T16:08:50.535Z,100868.88
2022-10-05T16:12:03.318Z,100873.38
2022-10-05T16:15:18.588Z,100867.47
2022-10-05T16:18:46.192Z,100871.03
2022-10-05T16:21:59.579Z,100865.34
2022-10-05T16:25:15.900Z,100866.16
2022-10-05T16:28:29.750Z,100858.72
2022-10-05T16:31:38.183Z,100862.31
2022-10-05T16:34:54.306Z,100859.00
2022-10-05T16:38:06.788Z,100862.66
2022-10-05T16:41:17.538Z,100866.94
2022-10-05T16:44:31.238Z,100872.66
2022-10-05T16:47:43.923Z,100873.56
2022-10-05T16:50:59.435Z,100882.84
2022-10-05T16:54:12.923Z,100873.28
2022-10-05T16:57:22.110Z,100881.31
2022-10-05T17:00:29.883Z,100885.81
2022-10-05T17:03:48.362Z,100900.81
2022-10-05T17:07:07.714Z,100892.22
2022-10-05T17:10:47.658Z,100904.81
2022-10-05T17:14:20.128Z,100910.91
2022-10-05T17:17:38.469Z,100919.00
2022-10-05T17:20:49.116Z,100929.72
2022-10-05T17:23:57.767Z,100930.09
2022-10-05T17:27:17.695Z,100943.75
2022-10-05T17:30:36.363Z,100956.69
2022-10-05T17:34:26.343Z,100950.56
2022-10-05T17:37:36.973Z,100950.84
2022-10-05T17:40:40.356Z,100959.44
2022-10-05T17:44:32.956Z,100954.00
2022-10-05T17:47:57.599Z,100945.91
2022-10-05T17:51:17.715Z,100950.56
2022-10-05T17:54:40.654Z,100951.03
2022-10-05T17:57:43.206Z,100950.00
2022-10-05T18:01:14.204Z,100954.00
2022-10-05T18:04:33.622Z,100951.50
2022-10-05T18:07:37.282Z,100954.91
2022-10-05T18:11:00.030Z,100944.66
2022-10-05T18:14:19.211Z,100952.19
2022-10-05T18:17:38.290Z,100951.91
2022-10-05T18:20:44.675Z,100948.13
2022-10-05T18:24:01.057Z,100940.72
2022-10-05T18:27:15.638Z,100932.56
2022-10-05T18:30:22.309Z,100928.38
2022-10-05T18:34:13.146Z,100925.03
2022-10-05T18:37:31.539Z,100920.03
2022-10-05T18:40:43.120Z,100919.09
2022-10-05T18:43:57.184Z,100913.47
2022-10-05T18:47:07.039Z,100914.59
2022-10-05T18:50:24.322Z,100902.84
2022-10-05T18:53:38.284Z,100899.31
2022-10-05T18:56:46.419Z,100902.63
2022-10-05T18:59:58.259Z,100899.47
2022-10-05T19:03:08.199Z,100904.94
2022-10-05T19:06:19.479Z,100905.78
2022-10-05T19:09:39.490Z,100905.41
2022-10-05T19:12:54.719Z,100904.47
2022-10-05T19:16:14.532Z,100911.91
2022-10-05T19:19:35.802Z,100899.75
2022-10-05T19:22:55.680Z,100902.00
2022-10-05T19:26:09.951Z,100896.25
2022-10-05T19:29:23.923Z,100906.78
2022-10-05T19:32:38.887Z,100904.41
2022-10-05T19:35:58.053Z,100896.25
2022-10-05T19:39:07.998Z,100892.56
2022-10-05T19:42:31.264Z,100901.34
2022-10-05T19:45:40.105Z,100905.75
2022-10-05T19:48:45.483Z,100899.44
2022-10-05T19:51:50.976Z,100894.25
2022-10-05T19:55:12.077Z,100905.47
2022-10-05T19:58:21.454Z,100907.47
2022-10-05T20:01:26.344Z,100912.91
2022-10-05T20:04:37.461Z,100917.84
2022-10-05T20:07:40.922Z,100918.22
2022-10-05T20:10:44.162Z,100915.00
2022-10-05T20:14:11.492Z,100914.53
2022-10-05T20:17:44.705Z,100922.88
2022-10-05T20:20:49.325Z,100932.34
2022-10-05T20:24:07.189Z,100928.88
2022-10-05T20:27:37.077Z,100933.75
2022-10-05T20:30:39.578Z,100930.69
2022-10-05T20:33:43.374Z,100933.94
2022-10-05T20:36:45.997Z,100937.00
2022-10-05T20:39:48.830Z,100936.63
2022-10-05T20:42:51.587Z,100930.72
2022-10-05T20:45:54.093Z,100927.06
2022-10-05T20:48:58.468Z,100931.94
2022-10-05T20:52:01.151Z,100920.72
2022-10-05T20:55:04.249Z,100931.34
2022-10-05T20:58:08.809Z,100954.50
2022-10-05T21:01:18.908Z,100946.56
2022-10-05T21:04:24.831Z,100949.16
2022-10-05T21:07:27.372Z,100952.13
2022-10-05T21:10:29.880Z,100935.44
2022-10-05T21:13:32.370Z,100935.94
2022-10-05T21:16:38.077Z,100935.09
2022-10-05T21:19:42.055Z,100932.22
2022-10-05T21:22:44.561Z,100929.72
2022-10-05T21:25:48.613Z,100937.63
2022-10-05T21:28:51.125Z,100926.81
2022-10-05T21:31:53.685Z,100942.03
2022-10-05T21:34:57.561Z,100938.16
2022-10-05T21:38:00.045Z,100940.53
2022-10-05T21:41:02.548Z,100939.41
2022-10-05T21:44:06.214Z,100957.94
2022-10-05T21:47:08.750Z,100958.22
2022-10-05T21:50:12.686Z,100968.53
2022-10-05T21:53:18.169Z,100971.44
2022-10-05T21:56:24.027Z,100966.78
2022-10-05T21:59:30.178Z,100972.72
2022-10-05T22:02:32.676Z,100970.25
2022-10-05T22:05:36.812Z,100975.59
2022-10-05T22:08:39.421Z,100980.56
2022-10-05T22:11:41.905Z,101000.88
2022-10-05T22:14:44.579Z,100989.94
2022-10-05T22:17:47.063Z,100987.25
2022-10-05T22:20:51.324Z,100995.28
2022-10-05T22:23:53.860Z,100995.13
2022-10-05T22:26:56.408Z,101000.28
2022-10-05T22:29:59.102Z,100999.91
2022-10-05T22:33:01.625Z,101007.81
2022-10-05T22:36:07.119Z,101003.25
2022-10-05T22:39:09.873Z,101011.75
2022-10-05T22:42:12.380Z,101003.09
2022-10-05T22:45:15.053Z,101006.19
2022-10-05T22:48:17.542Z,101005.44
2022-10-05T22:51:21.389Z,101021.41
2022-10-05T22:54:28.725Z,101022.66
2022-10-05T22:57:38.747Z,101023.41
2022-10-05T23:00:57.470Z,101026.94
2022-10-05T23:04:00.412Z,101037.03
2022-10-05T23:07:04.391Z,101036.25
2022-10-05T23:10:08.598Z,101035.09
2022-10-05T23:13:11.087Z,101055.81
2022-10-05T23:16:15.237Z,101074.75
2022-10-05T23:19:17.791Z,101116.13
2022-10-05T23:22:22.037Z,101116.63
2022-10-05T23:25:25.534Z,101139.78
2022-10-05T23:28:28.847Z,101130.03
2022-10-05T23:31:33.435Z,101147.78
2022-10-05T23:34:36.029Z,101134.66
2022-10-05T23:37:40.894Z,101136.38
2022-10-05T23:40:47.355Z,101137.84
2022-10-05T23:43:50.585Z,101145.22
2022-10-05T23:46:53.083Z,101139.78
2022-10-05T23:49:56.155Z,101137.69
2022-10-05T23:52:59.986Z,101144.09
2022-10-05T23:56:02.790Z,101152.75
2022-10-05T23:59:05.283Z,101143.59
